Time;durP1;ratioP1;P1;durP2;ratioP2;P2;SDS_P1;SDS_P2;PMS_P1;PMS_P2;Temp;Humidity;BMP_temperature;BMP_pressure;BME280_temperature;BME280_humidity;BME280_pressure;Samples;Min_cycle;Max_cycle;Signal;HPM_P1;HPM_P2
2023/06/08 00:02:17;;;;;;;;;;;12.10;99.90;;;;;;5053578;28;19924;-82
2023/06/08 00:04:46;;;;;;;;;;;12.10;99.90;;;;;;5067527;28;19925;-81
2023/06/08 00:07:14;;;;;;;;;;;12.10;99.90;;;;;;5071149;28;19936;-82
2023/06/08 00:09:43;;;;;;;;;;;12.10;99.90;;;;;;5069819;28;19979;-83
2023/06/08 00:12:10;;;;;;;;;;;12.10;99.90;;;;;;5066725;28;19924;-82
2023/06/08 00:14:36;;;;;;;;;;;12.20;99.90;;;;;;5068685;28;19932;-82
2023/06/08 00:17:02;;;;;;;;;;;12.20;99.90;;;;;;5064843;28;20362;-83
2023/06/08 00:19:29;;;;;;;;;;;12.10;99.90;;;;;;5065764;28;20006;-82
2023/06/08 00:21:56;;;;;;;;;;;12.10;99.90;;;;;;5068379;28;19925;-81
2023/06/08 00:24:22;;;;;;;;;;;12.10;99.90;;;;;;5065527;28;19925;-81
2023/06/08 00:26:48;;;;;;;;;;;12.10;99.90;;;;;;5066783;28;19940;-84
2023/06/08 00:29:13;;;;;;;;;;;12.10;99.90;;;;;;5060564;28;19928;-82
2023/06/08 00:31:39;;;;;;;;;;;12.20;99.90;;;;;;5062463;28;20376;-82
2023/06/08 00:34:05;;;;;;;;;;;12.20;99.90;;;;;;5069227;28;19932;-82
2023/06/08 00:36:30;;;;;;;;;;;12.20;99.90;;;;;;5064700;28;19925;-82
2023/06/08 00:38:56;;;;;;;;;;;12.20;99.90;;;;;;5067016;28;20395;-81
2023/06/08 00:41:21;;;;;;;;;;;12.20;99.90;;;;;;5067729;28;19928;-83
2023/06/08 00:43:47;;;;;;;;;;;12.20;99.90;;;;;;5082174;28;19932;-82
2023/06/08 00:46:13;;;;;;;;;;;12.20;99.90;;;;;;5051003;28;19925;-81
2023/06/08 00:48:40;;;;;;;;;;;12.20;99.90;;;;;;5065807;28;20291;-82
2023/06/08 00:51:06;;;;;;;;;;;12.10;99.90;;;;;;5068203;28;19933;-82
2023/06/08 00:53:32;;;;;;;;;;;12.10;99.90;;;;;;5065082;28;19936;-87
2023/06/08 00:55:58;;;;;;;;;;;12.20;99.90;;;;;;5067693;28;20302;-82
2023/06/08 00:58:28;;;;;;;;;;;12.20;99.90;;;;;;5065079;28;19932;-82
2023/06/08 01:00:59;;;;;;;;;;;12.20;99.90;;;;;;5060637;28;19933;-85
2023/06/08 01:03:35;;;;;;;;;;;12.10;99.90;;;;;;5065538;28;20267;-82
2023/06/08 01:06:02;;;;;;;;;;;12.10;99.90;;;;;;5066438;28;19928;-85
2023/06/08 01:08:48;;;;;;;;;;;12.10;99.90;;;;;;5067159;28;19959;-82
2023/06/08 01:11:21;;;;;;;;;;;12.20;99.90;;;;;;5063711;28;20015;-82
2023/06/08 01:14:03;;;;;;;;;;;12.10;99.90;;;;;;5065185;28;19935;-83
2023/06/08 01:16:32;;;;;;;;;;;12.10;99.90;;;;;;5067087;28;19998;-86
2023/06/08 01:19:01;;;;;;;;;;;12.00;99.90;;;;;;5063775;28;19928;-82
2023/06/08 01:21:33;;;;;;;;;;;12.00;99.90;;;;;;5064629;28;19924;-82
2023/06/08 01:24:12;;;;;;;;;;;12.00;99.90;;;;;;5065340;28;19947;-82
2023/06/08 01:26:38;;;;;;;;;;;11.90;99.90;;;;;;5065878;28;19935;-83
2023/06/08 01:29:05;;;;;;;;;;;11.90;99.90;;;;;;5060643;28;20019;-87
2023/06/08 01:31:31;;;;;;;;;;;11.90;99.90;;;;;;5067829;28;19925;-83
2023/06/08 01:33:57;;;;;;;;;;;11.80;99.90;;;;;;5066597;28;19932;-82
2023/06/08 01:36:37;;;;;;;;;;;11.80;99.90;;;;;;5070381;28;20322;-86
2023/06/08 01:39:06;;;;;;;;;;;11.80;99.90;;;;;;5063612;28;19925;-83
2023/06/08 01:41:36;;;;;;;;;;;11.80;99.90;;;;;;5071175;28;19932;-82
2023/06/08 01:44:03;;;;;;;;;;;11.80;99.90;;;;;;5071819;28;20264;-81
2023/06/08 01:46:30;;;;;;;;;;;11.80;99.90;;;;;;5072077;28;19925;-81
2023/06/08 01:49:00;;;;;;;;;;;11.70;99.90;;;;;;5071955;28;19929;-81
2023/06/08 01:51:26;;;;;;;;;;;11.70;99.90;;;;;;5060639;28;20008;-81
2023/06/08 01:54:18;;;;;;;;;;;11.70;99.90;;;;;;5071838;28;20363;-83
2023/06/08 01:56:43;;;;;;;;;;;11.70;99.90;;;;;;5067523;28;19955;-81
2023/06/08 01:59:09;;;;;;;;;;;11.60;99.90;;;;;;5070750;28;20099;-81
2023/06/08 02:01:35;;;;;;;;;;;11.70;99.90;;;;;;5070371;28;19955;-81
2023/06/08 02:04:00;;;;;;;;;;;11.70;99.90;;;;;;5071539;28;19951;-82
2023/06/08 02:06:26;;;;;;;;;;;11.70;99.90;;;;;;5075240;28;19928;-81
2023/06/08 02:08:51;;;;;;;;;;;11.70;99.90;;;;;;5074966;28;19925;-82
2023/06/08 02:11:17;;;;;;;;;;;11.70;99.90;;;;;;5071340;28;19943;-82
2023/06/08 02:13:43;;;;;;;;;;;11.60;99.90;;;;;;5068368;28;19924;-81
2023/06/08 02:16:09;;;;;;;;;;;11.60;99.90;;;;;;5068297;28;19978;-83
2023/06/08 02:18:40;;;;;;;;;;;11.70;99.90;;;;;;5067622;28;20607;-90
2023/06/08 02:21:06;;;;;;;;;;;11.60;99.90;;;;;;5066328;28;19978;-83
2023/06/08 02:23:32;;;;;;;;;;;11.70;99.90;;;;;;5066657;28;19925;-81
2023/06/08 02:25:57;;;;;;;;;;;11.70;99.90;;;;;;5069259;28;19990;-82
2023/06/08 02:28:23;;;;;;;;;;;11.80;99.90;;;;;;5066204;28;20004;-87
2023/06/08 02:30:48;;;;;;;;;;;11.80;99.90;;;;;;5067176;28;20021;-82
2023/06/08 02:33:14;;;;;;;;;;;11.80;99.90;;;;;;5064654;28;19932;-83
2023/06/08 02:35:40;;;;;;;;;;;11.80;99.90;;;;;;5068833;28;19968;-84
2023/06/08 02:38:06;;;;;;;;;;;11.80;99.90;;;;;;5034312;28;20336;-82
2023/06/08 02:40:31;;;;;;;;;;;11.80;99.90;;;;;;5068727;28;19939;-86
2023/06/08 02:43:00;;;;;;;;;;;11.70;99.90;;;;;;5068833;28;19924;-81
2023/06/08 02:45:26;;;;;;;;;;;11.80;99.90;;;;;;5067207;28;19968;-89
2023/06/08 02:47:51;;;;;;;;;;;11.80;99.90;;;;;;5068004;28;20426;-84
2023/06/08 02:50:17;;;;;;;;;;;11.80;99.90;;;;;;5067894;28;20012;-80
2023/06/08 02:52:43;;;;;;;;;;;11.80;99.90;;;;;;5068691;28;20403;-83
2023/06/08 02:55:09;;;;;;;;;;;11.70;99.90;;;;;;5067201;28;19981;-81
2023/06/08 02:57:36;;;;;;;;;;;11.70;99.90;;;;;;5064728;28;19924;-82
2023/06/08 03:00:07;;;;;;;;;;;11.70;99.90;;;;;;5067671;28;20294;-82
2023/06/08 03:02:33;;;;;;;;;;;11.70;99.90;;;;;;5061944;28;19925;-82
2023/06/08 03:05:03;;;;;;;;;;;11.70;99.90;;;;;;5066661;28;19925;-81
2023/06/08 03:07:33;;;;;;;;;;;11.60;99.90;;;;;;5068598;28;19929;-83
2023/06/08 03:09:59;;;;;;;;;;;11.60;99.90;;;;;;5069576;28;20015;-82
2023/06/08 03:12:25;;;;;;;;;;;11.70;99.90;;;;;;5067096;28;20069;-81
2023/06/08 03:14:50;;;;;;;;;;;11.70;99.90;;;;;;5067417;28;19983;-81
2023/06/08 03:17:17;;;;;;;;;;;11.70;99.90;;;;;;5068361;28;19924;-82
2023/06/08 03:19:43;;;;;;;;;;;11.70;99.90;;;;;;5068282;28;19936;-83
2023/06/08 03:22:09;;;;;;;;;;;11.70;99.90;;;;;;5051832;28;19966;-82
2023/06/08 03:24:34;;;;;;;;;;;11.60;99.90;;;;;;5065643;28;20325;-87
2023/06/08 03:27:00;;;;;;;;;;;11.70;99.90;;;;;;5064712;28;19929;-81
2023/06/08 03:29:26;;;;;;;;;;;11.60;99.90;;;;;;5069708;28;20421;-81
2023/06/08 03:31:52;;;;;;;;;;;11.60;99.90;;;;;;5067733;28;19924;-87
2023/06/08 03:34:18;;;;;;;;;;;11.60;99.90;;;;;;5065813;28;20048;-82
2023/06/08 03:36:44;;;;;;;;;;;11.70;99.90;;;;;;5064335;28;19935;-85
2023/06/08 03:39:10;;;;;;;;;;;11.70;99.90;;;;;;5068520;28;19932;-81
2023/06/08 03:41:35;;;;;;;;;;;11.70;99.90;;;;;;5064153;28;20280;-81
2023/06/08 03:44:01;;;;;;;;;;;11.70;99.90;;;;;;5064007;28;19951;-85
2023/06/08 03:46:27;;;;;;;;;;;11.70;99.90;;;;;;5064163;28;20332;-81
2023/06/08 03:48:52;;;;;;;;;;;11.70;99.90;;;;;;5068190;28;19931;-82
2023/06/08 03:51:19;;;;;;;;;;;11.60;99.90;;;;;;5061341;28;19931;-81
2023/06/08 03:53:46;;;;;;;;;;;11.70;99.90;;;;;;5067993;28;20018;-81
2023/06/08 03:56:12;;;;;;;;;;;11.70;99.90;;;;;;5049497;28;20007;-84
2023/06/08 03:58:38;;;;;;;;;;;11.70;99.90;;;;;;5080368;28;19978;-82
2023/06/08 04:01:04;;;;;;;;;;;11.60;99.90;;;;;;5064050;28;19972;-83
2023/06/08 04:03:29;;;;;;;;;;;11.60;99.90;;;;;;5065522;28;19928;-81
2023/06/08 04:05:56;;;;;;;;;;;11.60;99.90;;;;;;5066217;28;19932;-85
2023/06/08 04:08:22;;;;;;;;;;;11.60;99.90;;;;;;5066186;28;20402;-84
2023/06/08 04:10:48;;;;;;;;;;;11.60;99.90;;;;;;5064977;28;20342;-82
2023/06/08 04:13:13;;;;;;;;;;;11.50;99.90;;;;;;5066524;28;19924;-82
2023/06/08 04:15:39;;;;;;;;;;;11.50;99.90;;;;;;5068517;28;19925;-83
2023/06/08 04:18:05;;;;;;;;;;;11.50;99.90;;;;;;5066159;28;19986;-86
2023/06/08 04:20:33;;;;;;;;;;;11.50;99.90;;;;;;5066952;28;19978;-85
2023/06/08 04:22:59;;;;;;;;;;;11.50;99.90;;;;;;5064970;28;19928;-83
2023/06/08 04:25:25;;;;;;;;;;;11.60;99.90;;;;;;5066419;28;19931;-82
2023/06/08 04:27:54;;;;;;;;;;;11.60;99.90;;;;;;5065099;28;20023;-81
2023/06/08 04:30:21;;;;;;;;;;;11.70;99.90;;;;;;5067381;28;19947;-82
2023/06/08 04:32:47;;;;;;;;;;;11.70;99.90;;;;;;5063153;28;19929;-81
2023/06/08 04:35:12;;;;;;;;;;;11.80;99.90;;;;;;5065893;28;19954;-81
2023/06/08 04:37:38;;;;;;;;;;;11.70;99.90;;;;;;5065713;28;19974;-82
2023/06/08 04:40:04;;;;;;;;;;;11.80;99.90;;;;;;5064832;28;19954;-86
2023/06/08 04:42:33;;;;;;;;;;;11.80;99.90;;;;;;5063651;28;19925;-81
2023/06/08 04:45:00;;;;;;;;;;;11.90;99.90;;;;;;5067059;28;19925;-81
2023/06/08 04:47:29;;;;;;;;;;;11.90;99.90;;;;;;5048961;28;19925;-81
2023/06/08 04:49:56;;;;;;;;;;;11.90;99.90;;;;;;5063275;28;20337;-82
2023/06/08 04:52:22;;;;;;;;;;;12.00;99.90;;;;;;5066500;28;20290;-82
2023/06/08 04:54:52;;;;;;;;;;;12.00;99.90;;;;;;5066021;28;20007;-81
2023/06/08 04:57:19;;;;;;;;;;;12.00;99.90;;;;;;5066432;28;20411;-81
2023/06/08 04:59:45;;;;;;;;;;;12.10;99.90;;;;;;5071067;28;19928;-81
2023/06/08 05:02:10;;;;;;;;;;;12.10;99.90;;;;;;5072191;28;19928;-81
2023/06/08 05:04:36;;;;;;;;;;;12.10;99.90;;;;;;5060885;28;19932;-81
2023/06/08 05:07:01;;;;;;;;;;;12.10;99.90;;;;;;5051658;28;20015;-82
2023/06/08 05:09:27;;;;;;;;;;;12.20;99.90;;;;;;5071563;28;20334;-82
2023/06/08 05:11:52;;;;;;;;;;;12.40;99.90;;;;;;5069553;28;19924;-82
2023/06/08 05:14:18;;;;;;;;;;;12.60;99.90;;;;;;5072090;28;19978;-82
2023/06/08 05:16:44;;;;;;;;;;;12.90;99.90;;;;;;5071915;28;20335;-81
2023/06/08 05:19:11;;;;;;;;;;;13.10;99.90;;;;;;5072057;28;20537;-82
2023/06/08 05:21:39;;;;;;;;;;;13.30;99.90;;;;;;5060945;28;20344;-81
2023/06/08 05:24:05;;;;;;;;;;;13.70;99.90;;;;;;5068061;28;20340;-82
2023/06/08 05:26:31;;;;;;;;;;;14.10;99.90;;;;;;5065074;28;19931;-82
2023/06/08 05:28:56;;;;;;;;;;;14.40;99.90;;;;;;5066467;28;20291;-85
2023/06/08 05:31:22;;;;;;;;;;;14.70;99.90;;;;;;5064539;28;19935;-82
2023/06/08 05:33:47;;;;;;;;;;;15.00;99.90;;;;;;5066027;28;20035;-82
2023/06/08 05:36:13;;;;;;;;;;;15.30;99.90;;;;;;5064081;28;19928;-83
2023/06/08 05:38:39;;;;;;;;;;;15.60;99.90;;;;;;5067223;28;20011;-82
2023/06/08 05:41:05;;;;;;;;;;;15.90;99.90;;;;;;5066449;28;19925;-86
2023/06/08 05:43:31;;;;;;;;;;;16.00;99.90;;;;;;5066429;28;20375;-83
2023/06/08 05:45:56;;;;;;;;;;;16.20;99.90;;;;;;5069506;28;19936;-83
2023/06/08 05:48:22;;;;;;;;;;;16.30;99.90;;;;;;5067563;28;19935;-82
2023/06/08 05:50:48;;;;;;;;;;;16.50;99.90;;;;;;5069862;28;20050;-81
2023/06/08 05:53:13;;;;;;;;;;;16.60;99.90;;;;;;5064005;28;20295;-83
2023/06/08 05:55:41;;;;;;;;;;;16.90;99.90;;;;;;5073397;28;19932;-83
2023/06/08 05:58:07;;;;;;;;;;;17.00;99.90;;;;;;5067855;28;20299;-82
2023/06/08 06:00:33;;;;;;;;;;;17.40;99.90;;;;;;5068412;28;19924;-82
2023/06/08 06:02:59;;;;;;;;;;;17.40;99.90;;;;;;5072155;28;19925;-83
2023/06/08 06:05:25;;;;;;;;;;;17.60;99.90;;;;;;5063637;28;20383;-81
2023/06/08 06:07:50;;;;;;;;;;;17.80;99.90;;;;;;5064952;28;20348;-82
2023/06/08 06:10:16;;;;;;;;;;;18.00;99.90;;;;;;5067737;28;19976;-84
2023/06/08 06:12:41;;;;;;;;;;;18.10;99.90;;;;;;5044786;28;20264;-83
2023/06/08 06:15:07;;;;;;;;;;;18.20;99.90;;;;;;5074059;28;19935;-86
2023/06/08 06:17:33;;;;;;;;;;;18.30;99.90;;;;;;5070290;28;19979;-85
2023/06/08 06:19:58;;;;;;;;;;;18.30;99.90;;;;;;5058576;28;19929;-83
2023/06/08 06:22:24;;;;;;;;;;;18.20;99.90;;;;;;5054385;28;19931;-86
2023/06/08 06:24:49;;;;;;;;;;;18.40;99.90;;;;;;5072368;28;20031;-84
2023/06/08 06:27:15;;;;;;;;;;;18.50;99.90;;;;;;5054465;28;19932;-84
2023/06/08 06:29:41;;;;;;;;;;;18.80;99.90;;;;;;5068270;28;20015;-85
2023/06/08 06:32:07;;;;;;;;;;;19.00;99.90;;;;;;5066745;28;19931;-84
2023/06/08 06:34:32;;;;;;;;;;;19.10;99.90;;;;;;5067057;28;19931;-86
2023/06/08 06:36:58;;;;;;;;;;;19.30;99.90;;;;;;5069677;28;20359;-84
2023/06/08 06:39:23;;;;;;;;;;;19.40;99.90;;;;;;5066571;28;19925;-83
2023/06/08 06:41:49;;;;;;;;;;;19.50;99.90;;;;;;5061226;28;19932;-86
2023/06/08 06:44:15;;;;;;;;;;;19.60;99.90;;;;;;5068150;28;20391;-85
2023/06/08 06:46:41;;;;;;;;;;;19.70;99.90;;;;;;5067980;28;19972;-84
2023/06/08 06:49:07;;;;;;;;;;;19.90;99.90;;;;;;5067092;28;19924;-83
2023/06/08 06:51:32;;;;;;;;;;;20.10;99.90;;;;;;5067441;28;19933;-84
2023/06/08 06:53:58;;;;;;;;;;;20.20;99.90;;;;;;5066868;28;19932;-83
2023/06/08 06:56:24;;;;;;;;;;;20.30;99.90;;;;;;5066652;28;20015;-83
2023/06/08 06:58:52;;;;;;;;;;;20.40;99.90;;;;;;5068743;28;19928;-86
2023/06/08 07:01:18;;;;;;;;;;;20.50;99.90;;;;;;5068492;28;20103;-89
2023/06/08 07:03:44;;;;;;;;;;;20.60;99.90;;;;;;5065794;28;20047;-84
2023/06/08 07:06:10;;;;;;;;;;;20.80;99.90;;;;;;5064815;28;19931;-84
2023/06/08 07:08:36;;;;;;;;;;;20.60;99.90;;;;;;5066756;28;20330;-84
2023/06/08 07:11:01;;;;;;;;;;;20.50;99.90;;;;;;5070518;28;19928;-84
2023/06/08 07:13:27;;;;;;;;;;;20.50;99.30;;;;;;5071187;28;19959;-86
2023/06/08 07:15:53;;;;;;;;;;;20.60;99.90;;;;;;5066600;28;19929;-86
2023/06/08 07:18:19;;;;;;;;;;;20.80;99.90;;;;;;5053921;28;20398;-84
2023/06/08 07:20:44;;;;;;;;;;;21.00;99.90;;;;;;5071149;28;19924;-83
2023/06/08 07:23:11;;;;;;;;;;;21.20;99.90;;;;;;5072730;28;19973;-84
2023/06/08 07:25:37;;;;;;;;;;;21.50;99.90;;;;;;5072594;28;20329;-84
2023/06/08 07:28:06;;;;;;;;;;;21.60;99.90;;;;;;5072239;28;20427;-85
2023/06/08 07:30:32;;;;;;;;;;;21.70;97.60;;;;;;5068959;28;19928;-84
2023/06/08 07:33:01;;;;;;;;;;;21.60;99.50;;;;;;5065896;28;20307;-88
2023/06/08 07:35:27;;;;;;;;;;;21.70;99.60;;;;;;5066895;28;19925;-83
2023/06/08 07:37:53;;;;;;;;;;;21.90;98.90;;;;;;5069341;28;19928;-83
2023/06/08 07:40:19;;;;;;;;;;;22.00;98.60;;;;;;5064541;28;20330;-83
2023/06/08 07:42:45;;;;;;;;;;;22.10;98.60;;;;;;5069039;28;19943;-83
2023/06/08 07:45:13;;;;;;;;;;;22.00;96.50;;;;;;5062052;28;19932;-84
2023/06/08 07:47:39;;;;;;;;;;;21.90;94.90;;;;;;5066550;28;19939;-86
2023/06/08 07:50:08;;;;;;;;;;;21.70;97.40;;;;;;5066894;28;20420;-84
2023/06/08 07:52:34;;;;;;;;;;;21.50;97.20;;;;;;5063158;28;19932;-83
2023/06/08 07:55:00;;;;;;;;;;;21.10;95.10;;;;;;5067476;28;20128;-84
2023/06/08 07:57:26;;;;;;;;;;;20.60;96.50;;;;;;5064481;28;19929;-85
2023/06/08 07:59:51;;;;;;;;;;;20.30;98.20;;;;;;5071939;28;19931;-84
2023/06/08 08:02:17;;;;;;;;;;;20.00;97.90;;;;;;5068757;28;20415;-88
2023/06/08 08:04:43;;;;;;;;;;;19.90;99.90;;;;;;5033197;28;20090;-83
2023/06/08 08:07:08;;;;;;;;;;;20.10;99.90;;;;;;5066965;28;19964;-82
2023/06/08 08:09:35;;;;;;;;;;;20.10;99.90;;;;;;5065397;28;19929;-83
2023/06/08 08:12:01;;;;;;;;;;;20.20;99.90;;;;;;5063307;28;19933;-85
2023/06/08 08:14:26;;;;;;;;;;;20.10;99.10;;;;;;5063981;28;19930;-84
2023/06/08 08:16:52;;;;;;;;;;;20.00;99.50;;;;;;5066337;28;19935;-88
2023/06/08 08:19:17;;;;;;;;;;;19.90;99.90;;;;;;5048415;28;19928;-82
2023/06/08 08:21:43;;;;;;;;;;;20.00;99.90;;;;;;5065396;28;19925;-83
2023/06/08 08:24:09;;;;;;;;;;;20.00;99.90;;;;;;5065758;28;19975;-86
2023/06/08 08:26:35;;;;;;;;;;;19.90;99.90;;;;;;5064597;28;20383;-86
2023/06/08 08:29:00;;;;;;;;;;;19.80;99.90;;;;;;5067574;28;19928;-82
2023/06/08 08:31:26;;;;;;;;;;;19.80;99.90;;;;;;5067373;28;19924;-81
2023/06/08 08:33:51;;;;;;;;;;;19.90;99.90;;;;;;5066686;28;19928;-84
2023/06/08 08:36:17;;;;;;;;;;;20.00;99.90;;;;;;5049402;28;19943;-84
2023/06/08 08:38:43;;;;;;;;;;;20.20;99.90;;;;;;5066064;28;20382;-81
2023/06/08 08:41:09;;;;;;;;;;;20.60;99.60;;;;;;5066724;28;19959;-84
2023/06/08 08:43:40;;;;;;;;;;;21.00;99.60;;;;;;5067267;28;19963;-83
2023/06/08 08:46:07;;;;;;;;;;;21.60;99.70;;;;;;5064790;28;20371;-83
2023/06/08 08:48:33;;;;;;;;;;;21.90;98.40;;;;;;5063670;28;19964;-82
2023/06/08 08:51:00;;;;;;;;;;;22.10;97.60;;;;;;5066008;28;19924;-86
2023/06/08 08:53:30;;;;;;;;;;;22.40;94.70;;;;;;5055018;28;19925;-83
2023/06/08 08:55:59;;;;;;;;;;;22.60;95.80;;;;;;5062373;28;19955;-85
2023/06/08 08:58:25;;;;;;;;;;;22.50;93.60;;;;;;5070802;28;19925;-82
2023/06/08 09:00:51;;;;;;;;;;;22.40;96.40;;;;;;5069094;28;19936;-83
2023/06/08 09:03:17;;;;;;;;;;;22.50;94.30;;;;;;5063506;28;20413;-83
2023/06/08 09:05:43;;;;;;;;;;;22.50;93.80;;;;;;5065382;28;19932;-83
2023/06/08 09:08:09;;;;;;;;;;;22.50;97.10;;;;;;5068098;28;19925;-83
2023/06/08 09:10:35;;;;;;;;;;;22.60;95.40;;;;;;5062375;28;19928;-84
2023/06/08 09:13:01;;;;;;;;;;;22.80;96.10;;;;;;5043832;28;19958;-82
2023/06/08 09:15:28;;;;;;;;;;;23.00;95.00;;;;;;5072000;28;19932;-82
2023/06/08 09:17:58;;;;;;;;;;;23.10;95.60;;;;;;5074434;28;19925;-81
2023/06/08 09:20:27;;;;;;;;;;;23.30;93.60;;;;;;5074946;28;19925;-82
2023/06/08 09:22:53;;;;;;;;;;;23.50;95.60;;;;;;5075224;28;19962;-81
2023/06/08 09:25:32;;;;;;;;;;;23.60;92.80;;;;;;5074861;28;19926;-82
2023/06/08 09:28:14;;;;;;;;;;;23.50;90.10;;;;;;5069733;28;20371;-82
2023/06/08 09:30:40;;;;;;;;;;;23.60;91.80;;;;;;5066927;28;19925;-82
2023/06/08 09:33:23;;;;;;;;;;;23.60;87.40;;;;;;5068758;28;19940;-83
2023/06/08 09:36:03;;;;;;;;;;;23.60;92.90;;;;;;5069456;28;20359;-81
2023/06/08 09:38:29;;;;;;;;;;;23.60;88.90;;;;;;5065952;28;19924;-82
2023/06/08 09:41:14;;;;;;;;;;;23.80;92.30;;;;;;5070759;28;20271;-84
2023/06/08 09:43:41;;;;;;;;;;;23.80;90.30;;;;;;5062583;28;20292;-81
2023/06/08 09:46:06;;;;;;;;;;;23.80;87.70;;;;;;5075779;28;19931;-81
2023/06/08 09:48:33;;;;;;;;;;;23.80;91.20;;;;;;5071889;28;19924;-82
2023/06/08 09:51:02;;;;;;;;;;;23.80;88.40;;;;;;5073108;28;19967;-83
2023/06/08 09:53:28;;;;;;;;;;;23.90;91.20;;;;;;5056853;28;20055;-83
2023/06/08 09:55:54;;;;;;;;;;;23.90;89.10;;;;;;5075164;28;19928;-82
2023/06/08 09:58:22;;;;;;;;;;;24.00;90.10;;;;;;5072730;28;19932;-81
2023/06/08 10:00:48;;;;;;;;;;;24.20;90.70;;;;;;5071756;28;19931;-81
2023/06/08 10:03:21;;;;;;;;;;;24.40;88.50;;;;;;5073188;28;19924;-82
2023/06/08 10:05:47;;;;;;;;;;;24.40;86.50;;;;;;5072783;28;20295;-82
2023/06/08 10:08:22;;;;;;;;;;;24.40;86.50;;;;;;5073986;28;19931;-85
2023/06/08 10:10:47;;;;;;;;;;;24.20;87.10;;;;;;5072466;28;19931;-81
2023/06/08 10:13:14;;;;;;;;;;;24.20;85.00;;;;;;5074199;28;20309;-83
2023/06/08 10:15:41;;;;;;;;;;;24.20;90.00;;;;;;5067359;28;19935;-82
2023/06/08 10:18:07;;;;;;;;;;;24.30;86.10;;;;;;5072216;28;19924;-83
2023/06/08 10:20:33;;;;;;;;;;;24.50;89.80;;;;;;5073553;28;19929;-82
2023/06/08 10:22:59;;;;;;;;;;;24.70;83.50;;;;;;5070301;28;19932;-83
2023/06/08 10:25:28;;;;;;;;;;;24.80;85.50;;;;;;5073477;28;19925;-82
2023/06/08 10:27:54;;;;;;;;;;;25.00;84.50;;;;;;5074629;28;19935;-84
2023/06/08 10:30:27;;;;;;;;;;;25.20;85.40;;;;;;5075040;28;19928;-82
2023/06/08 10:32:55;;;;;;;;;;;25.20;82.40;;;;;;5065465;28;19924;-81
2023/06/08 10:35:20;;;;;;;;;;;25.10;83.40;;;;;;5074251;28;19977;-86
2023/06/08 10:37:46;;;;;;;;;;;25.10;81.60;;;;;;5071866;28;19924;-81
2023/06/08 10:40:12;;;;;;;;;;;25.20;79.80;;;;;;5073677;28;20393;-82
2023/06/08 10:42:49;;;;;;;;;;;25.30;78.80;;;;;;5072615;28;19928;-81
2023/06/08 10:45:15;;;;;;;;;;;25.20;78.90;;;;;;5073648;28;19924;-82
2023/06/08 10:47:42;;;;;;;;;;;25.10;81.90;;;;;;5073324;28;20011;-82
2023/06/08 10:50:08;;;;;;;;;;;25.30;83.20;;;;;;5063776;28;19925;-82
2023/06/08 10:52:42;;;;;;;;;;;25.40;80.10;;;;;;5074003;28;19931;-82
2023/06/08 10:55:11;;;;;;;;;;;25.60;80.90;;;;;;5065465;28;19964;-81
2023/06/08 10:57:37;;;;;;;;;;;25.80;77.20;;;;;;5071467;28;19928;-84
2023/06/08 11:00:26;;;;;;;;;;;25.90;77.30;;;;;;5074560;28;19936;-82
2023/06/08 11:02:52;;;;;;;;;;;26.00;77.50;;;;;;5058611;28;20303;-82
2023/06/08 11:05:19;;;;;;;;;;;25.90;78.50;;;;;;5073446;28;20100;-83
2023/06/08 11:07:45;;;;;;;;;;;25.90;78.70;;;;;;5073081;28;19932;-83
2023/06/08 11:10:11;;;;;;;;;;;25.90;74.60;;;;;;5074197;28;19928;-83
2023/06/08 11:12:36;;;;;;;;;;;25.90;75.90;;;;;;5070171;28;19947;-82
2023/06/08 11:15:02;;;;;;;;;;;25.90;78.80;;;;;;5064816;28;19934;-82
2023/06/08 11:17:28;;;;;;;;;;;25.80;72.80;;;;;;5071599;28;19935;-83
2023/06/08 11:19:53;;;;;;;;;;;25.80;77.40;;;;;;5073866;28;19924;-82
2023/06/08 11:22:21;;;;;;;;;;;25.90;76.10;;;;;;5073995;28;19928;-82
2023/06/08 11:24:47;;;;;;;;;;;26.10;76.20;;;;;;5071530;28;19924;-81
2023/06/08 11:27:17;;;;;;;;;;;26.30;77.30;;;;;;5069470;28;19934;-82
2023/06/08 11:29:46;;;;;;;;;;;26.40;72.10;;;;;;5071359;28;20344;-81
2023/06/08 11:32:13;;;;;;;;;;;26.30;72.60;;;;;;5068789;28;19932;-83
2023/06/08 11:34:41;;;;;;;;;;;26.20;74.30;;;;;;5063573;28;19940;-82
2023/06/08 11:37:06;;;;;;;;;;;26.20;73.40;;;;;;5068319;28;19924;-81
2023/06/08 11:39:33;;;;;;;;;;;26.20;74.00;;;;;;5069553;28;19932;-81
2023/06/08 11:41:59;;;;;;;;;;;26.10;72.40;;;;;;5072651;28;20055;-82
2023/06/08 11:44:30;;;;;;;;;;;26.00;72.10;;;;;;5073670;28;19924;-80
2023/06/08 11:46:56;;;;;;;;;;;25.80;73.10;;;;;;5072513;28;19929;-81
2023/06/08 11:49:22;;;;;;;;;;;25.60;74.90;;;;;;5072821;28;20018;-82
2023/06/08 11:51:53;;;;;;;;;;;25.70;76.00;;;;;;5072098;28;19936;-80
2023/06/08 11:54:20;;;;;;;;;;;25.80;75.60;;;;;;5061932;28;20435;-82
2023/06/08 11:56:45;;;;;;;;;;;25.90;75.20;;;;;;5055501;28;19925;-80
2023/06/08 11:59:15;;;;;;;;;;;25.90;75.60;;;;;;5072263;28;19966;-82
2023/06/08 12:01:53;;;;;;;;;;;26.00;72.70;;;;;;5073220;28;19929;-81
2023/06/08 12:04:19;;;;;;;;;;;26.20;75.20;;;;;;5073313;28;19935;-81
2023/06/08 12:06:45;;;;;;;;;;;26.30;75.30;;;;;;5072429;28;19924;-81
2023/06/08 12:09:10;;;;;;;;;;;26.50;74.60;;;;;;5058007;28;20015;-86
2023/06/08 12:11:36;;;;;;;;;;;26.60;74.00;;;;;;5070519;28;19931;-83
2023/06/08 12:14:03;;;;;;;;;;;26.50;73.80;;;;;;5059160;28;19925;-82
2023/06/08 12:16:41;;;;;;;;;;;26.40;71.90;;;;;;5072117;28;19960;-82
2023/06/08 12:19:06;;;;;;;;;;;26.40;74.40;;;;;;5072968;28;20268;-82
2023/06/08 12:21:38;;;;;;;;;;;26.40;74.60;;;;;;5072058;28;19954;-80
2023/06/08 12:24:04;;;;;;;;;;;26.50;74.30;;;;;;5073134;28;19978;-80
2023/06/08 12:26:30;;;;;;;;;;;26.50;72.60;;;;;;5072626;28;19928;-81
2023/06/08 12:28:55;;;;;;;;;;;26.40;71.30;;;;;;5071781;28;20015;-82
2023/06/08 12:31:21;;;;;;;;;;;26.30;72.20;;;;;;5071904;28;19943;-81
2023/06/08 12:33:46;;;;;;;;;;;26.40;73.20;;;;;;5071968;28;19928;-81
2023/06/08 12:36:12;;;;;;;;;;;26.50;71.40;;;;;;5065964;28;20430;-85
2023/06/08 12:38:38;;;;;;;;;;;26.60;70.20;;;;;;5051368;28;20271;-82
2023/06/08 12:41:04;;;;;;;;;;;26.40;69.00;;;;;;5060437;28;20060;-82
2023/06/08 12:43:29;;;;;;;;;;;26.30;71.80;;;;;;5071647;28;19936;-82
2023/06/08 12:45:55;;;;;;;;;;;26.10;71.20;;;;;;5069927;28;19947;-82
2023/06/08 12:48:22;;;;;;;;;;;26.20;70.90;;;;;;5064042;28;20393;-82
2023/06/08 12:50:48;;;;;;;;;;;26.20;73.30;;;;;;5072634;28;19924;-81
2023/06/08 12:53:13;;;;;;;;;;;26.30;73.60;;;;;;5070683;28;19977;-81
2023/06/08 12:55:39;;;;;;;;;;;26.30;72.90;;;;;;5070517;28;20392;-82
2023/06/08 12:58:05;;;;;;;;;;;26.40;72.00;;;;;;5072223;28;19924;-82
2023/06/08 13:00:30;;;;;;;;;;;26.50;72.20;;;;;;5066837;28;19933;-80
2023/06/08 13:02:57;;;;;;;;;;;26.70;72.30;;;;;;5063766;28;19978;-82
2023/06/08 13:05:25;;;;;;;;;;;26.80;72.40;;;;;;5071214;28;19931;-83
2023/06/08 13:07:51;;;;;;;;;;;27.00;71.70;;;;;;5065459;28;20324;-82
2023/06/08 13:10:16;;;;;;;;;;;27.10;70.50;;;;;;5067298;28;19932;-81
2023/06/08 13:12:43;;;;;;;;;;;27.10;71.30;;;;;;5063632;28;20050;-83
2023/06/08 13:15:09;;;;;;;;;;;27.10;70.40;;;;;;5071216;28;19932;-84
2023/06/08 13:17:34;;;;;;;;;;;27.20;70.60;;;;;;5072338;28;19924;-82
2023/06/08 13:20:00;;;;;;;;;;;27.30;70.10;;;;;;5072542;28;19924;-82
2023/06/08 13:22:26;;;;;;;;;;;27.30;71.80;;;;;;5067791;28;19990;-83
2023/06/08 13:24:51;;;;;;;;;;;27.40;71.20;;;;;;5064438;28;20015;-82
2023/06/08 13:27:17;;;;;;;;;;;27.40;70.10;;;;;;5065321;28;19932;-82
2023/06/08 13:29:48;;;;;;;;;;;27.30;70.20;;;;;;5072393;28;19932;-82
2023/06/08 13:32:13;;;;;;;;;;;27.20;70.90;;;;;;5067907;28;19970;-83
2023/06/08 13:34:39;;;;;;;;;;;27.20;69.60;;;;;;5066209;28;19924;-83
2023/06/08 13:37:05;;;;;;;;;;;27.30;71.00;;;;;;5071961;28;20011;-84
2023/06/08 13:39:30;;;;;;;;;;;27.20;70.90;;;;;;5072860;28;19933;-82
2023/06/08 13:41:56;;;;;;;;;;;27.10;70.20;;;;;;5066054;28;20007;-80
2023/06/08 13:44:22;;;;;;;;;;;27.10;70.20;;;;;;5059013;28;19925;-82
2023/06/08 13:46:48;;;;;;;;;;;26.90;71.20;;;;;;5064018;28;20260;-81
2023/06/08 13:49:14;;;;;;;;;;;27.00;70.40;;;;;;5061447;28;19951;-82
2023/06/08 13:51:41;;;;;;;;;;;27.00;71.30;;;;;;5071858;28;20011;-83
2023/06/08 13:54:07;;;;;;;;;;;27.00;70.60;;;;;;5072066;28;19932;-86
2023/06/08 13:56:32;;;;;;;;;;;26.90;72.20;;;;;;5070304;28;19924;-83
2023/06/08 13:58:58;;;;;;;;;;;26.90;72.00;;;;;;5072218;28;20074;-82
2023/06/08 14:01:24;;;;;;;;;;;26.80;71.40;;;;;;5073744;28;19924;-82
2023/06/08 14:03:50;;;;;;;;;;;26.70;70.00;;;;;;5064922;28;19925;-82
2023/06/08 14:06:16;;;;;;;;;;;26.70;71.20;;;;;;5073301;28;19924;-81
2023/06/08 14:08:41;;;;;;;;;;;26.60;71.10;;;;;;5068551;28;19933;-82
2023/06/08 14:11:07;;;;;;;;;;;26.60;72.20;;;;;;5064553;28;19970;-83
2023/06/08 14:13:32;;;;;;;;;;;26.50;71.10;;;;;;5074702;28;20015;-81
2023/06/08 14:15:58;;;;;;;;;;;26.40;72.20;;;;;;5058877;28;19939;-85